logo
Rechercher aéroport 
image banner adimage banner adimage banner ad
image banner ad

SWEJ - Associacao Tocantinense De Aviacao

Situé à Porto Nacional, Brazil

ICAO - SWEJ, IATA -

Données fournies par Airmate  

Information générale

Coordonnées: S10°10'58" W48°32'43"
Élévation : 1000 feet MSL.
Variation magnétique : -21.417629569° East
Voir autres Aéroports à Tocatins

Données opérationnelles

Special qualification required
Heure actuelle UTC:
Heure actuelle locale:
Météo à : SBPJ - Brigadeiro Lysias Rodrigues ( 24 km )
METAR: SBPJ 220800Z 13004KT CAVOK 23/19 Q1013
TAF: TAF SBPJ 220300Z 2206/2306 10005KT 9999 FEW025 TN24/2207Z TX33/2216Z RMK PHD
Voir NOTAMs / SUP AIP / TFR affectant cet aéroport [VIEW]
Fréquences de communication: [VIEW]

Pistes:

Identifiant RWYQFULongueur (ft)Largeur (ft)SurfaceLDA (ft)
11336666ASPH
29336666ASPH

Coordonnées de l'aéroport

Adresse: Porto Nacional Brazil

Vue satellite de SWEJ